METAR AND TAF INFORMATION
METAR FOR EGCC
ADDS - METARS form results

(2159 UTC 22 April 2019)
Data provider http://aviationweather.gov/metar/data/
 
METAR text: EGCC 222150Z AUTO 09007KT 040V130 9999 NCD 18/05 Q1001 NOSIG
Conditions at: EGCC (MANCHESTER INTL , GB) observed 2150 UTC 22 April 2019
Temperature: 18.0°C (64°F)
Dewpoint: 5.0°C (41°F) [RH = 42%]
Pressure (altimeter): 29.56 inches Hg (1001.0 mb)
Winds: from the E (90 degrees) at 8 MPH (7 knots; 3.6 m/s)
Visibility: 6 or more miles (10+ km)
Ceiling: at least 12,000 feet AGL
Clouds: sky clear below 12,000 feet AGL
Weather: no significant weather observed at this time

METAR text: EGCC 222120Z AUTO 10007KT 050V150 9999 NCD 18/05 Q1002 NOSIG
Conditions at: EGCC (MANCHESTER INTL , GB) observed 2120 UTC 22 April 2019
Temperature: 18.0°C (64°F)
Dewpoint: 5.0°C (41°F) [RH = 42%]
Pressure (altimeter): 29.59 inches Hg (1002.0 mb)
Winds: from the E (100 degrees) at 8 MPH (7 knots; 3.6 m/s)
Visibility: 6 or more miles (10+ km)
Ceiling: at least 12,000 feet AGL
Clouds: sky clear below 12,000 feet AGL
Weather: no significant weather observed at this time

Forecast for: EGCC (MANCHESTER INTL , GB)
Text: TAF EGCC 221707Z 2218/2324 09006KT CAVOK
Forecast period: 1800 UTC 22 April 2019 to 0000 UTC 24 April 2019
Forecast type: FROM: standard forecast or significant change
Winds: from the E (90 degrees) at 7 MPH (6 knots; 3.1 m/s)
Visibility: 6 or more miles 10+ km)
Ceiling: unknown
Clouds: missing
Weather: NSW  (no significant weather)
Text: PROB30 2303/2309 8000
Forecast period: 0300 to 0900 UTC 23 April 2019
Forecast type: PROBABLE: 30 percent likelihood of the following during this time
Visibility: 5 miles (8 km)
Ceiling: unknown
Clouds: missing
Weather: no significant weather forecast for this period

 AIRPORT MAP

 RUNWAY INFORMATION
Runway 05L Runway length 10000 ft Runway width 150 ft
Runway elevation 212 ft Runway displaced threshold 1401 ft Runway heading 51
Runway 23R Runway length 10000 ft Runway width 150 ft
Runway elevation 249 ft Runway displaced threshold 600 ft Runway heading 231
Runway 05R Runway length 9997 ft Runway width 150 ft
Runway elevation 186 ft Runway displaced threshold 604 ft Runway heading 51
Runway 23L Runway length 9997 ft Runway width 150 ft
Runway elevation 227 ft Runway displaced threshold 604 ft Runway heading 231

 AIRPORT FREQUENCIES
Type APP Name APP Frequency 135 MHZ
Type ATIS Name ATIS Frequency 128.175 MHZ
Type CLD Name CLNC DEL Frequency 121.7 MHZ
Type GND Name GND Frequency 121.85 MHZ
Type TWR Name TWR Frequency 118.625 MHZ

 AIRPORT NEAR NAVIGATION AIDS
Type NDB Name Manchester Frequency 428 KHZ
Type VOR-DME Name Manchester Frequency 113550 KHZ



Powered by Virtual Airlines Manager [v2.6.2]